createdAt,value
2022-12-31T00:01:33.041Z,100261.66
2022-12-31T00:03:55.814Z,100256.97
2022-12-31T00:06:28.671Z,100263.25
2022-12-31T00:08:52.104Z,100235.53
2022-12-31T00:11:14.586Z,100238.06
2022-12-31T00:13:37.437Z,100224.66
2022-12-31T00:16:29.214Z,100227.09
2022-12-31T00:18:54.559Z,100234.50
2022-12-31T00:21:17.585Z,100243.88
2022-12-31T00:23:40.063Z,100236.97
2022-12-31T00:26:13.814Z,100235.03
2022-12-31T00:28:36.589Z,100240.00
2022-12-31T00:31:08.884Z,100253.09
2022-12-31T00:33:31.273Z,100236.66
2022-12-31T00:35:53.664Z,100228.13
2022-12-31T00:38:16.050Z,100246.19
2022-12-31T00:40:38.431Z,100232.19
2022-12-31T00:43:00.813Z,100235.44
2022-12-31T00:45:23.233Z,100221.44
2022-12-31T00:47:45.583Z,100240.31
2022-12-31T00:50:08.595Z,100227.34
2022-12-31T00:52:30.994Z,100222.63
2022-12-31T00:54:53.331Z,100203.44
2022-12-31T00:57:15.737Z,100205.06
2022-12-31T00:59:38.074Z,100208.34
2022-12-31T01:02:00.574Z,100193.47
2022-12-31T01:04:23.056Z,100207.75
2022-12-31T01:06:45.546Z,100211.78
2022-12-31T01:09:08.089Z,100211.78
2022-12-31T01:11:30.684Z,100192.28
2022-12-31T01:14:05.315Z,100203.78
2022-12-31T01:16:54.226Z,100224.50
2022-12-31T01:19:25.055Z,100203.25
2022-12-31T01:21:49.377Z,100221.25
2022-12-31T01:24:11.960Z,100198.06
2022-12-31T01:26:34.416Z,100194.72
2022-12-31T01:28:56.828Z,100206.38
2022-12-31T01:31:22.714Z,100197.25
2022-12-31T01:33:45.678Z,100184.75
2022-12-31T01:36:21.852Z,100201.72
2022-12-31T01:38:47.847Z,100202.41
2022-12-31T01:41:15.305Z,100200.97
2022-12-31T01:44:09.334Z,100180.84
2022-12-31T01:46:54.396Z,100185.41
2022-12-31T01:49:58.339Z,100187.88
2022-12-31T01:52:41.918Z,100192.75
2022-12-31T01:55:23.156Z,100208.00
2022-12-31T01:57:46.958Z,100212.25
2022-12-31T02:00:10.092Z,100207.44
2022-12-31T02:02:32.646Z,100229.81
2022-12-31T02:04:56.304Z,100202.91
2022-12-31T02:07:18.672Z,100209.59
2022-12-31T02:09:41.318Z,100186.34
2022-12-31T02:12:04.140Z,100188.03
2022-12-31T02:14:30.238Z,100192.81
2022-12-31T02:17:10.539Z,100216.59
2022-12-31T02:20:29.021Z,100200.00
2022-12-31T02:23:00.373Z,100200.38
2022-12-31T02:26:04.934Z,100187.28
2022-12-31T02:29:16.115Z,100204.16
2022-12-31T02:31:59.011Z,100187.03
2022-12-31T02:34:37.535Z,100180.06
2022-12-31T02:37:00.985Z,100209.38
2022-12-31T02:39:23.330Z,100168.09
2022-12-31T02:41:52.665Z,100197.72
2022-12-31T02:44:35.572Z,100173.78
2022-12-31T02:47:34.951Z,100169.44
2022-12-31T02:50:35.059Z,100171.03
2022-12-31T02:53:37.076Z,100179.44
2022-12-31T02:56:52.537Z,100170.50
2022-12-31T02:59:44.764Z,100206.78
2022-12-31T03:02:16.692Z,100181.00
2022-12-31T03:04:39.309Z,100203.53
2022-12-31T03:07:13.905Z,100225.84
2022-12-31T03:09:36.582Z,100209.34
2022-12-31T03:12:17.558Z,100198.31
2022-12-31T03:14:39.951Z,100214.53
2022-12-31T03:17:02.314Z,100202.72
2022-12-31T03:19:43.457Z,100192.19
2022-12-31T03:22:24.529Z,100206.78
2022-12-31T03:25:05.505Z,100188.81
2022-12-31T03:27:27.847Z,100194.66
2022-12-31T03:29:50.199Z,100183.13
2022-12-31T03:32:12.546Z,100209.19
2022-12-31T03:34:34.884Z,100191.75
2022-12-31T03:36:57.258Z,100206.00
2022-12-31T03:39:19.617Z,100196.63
2022-12-31T03:41:41.938Z,100197.44
2022-12-31T03:44:04.384Z,100195.81
2022-12-31T03:46:26.710Z,100186.09
2022-12-31T03:48:49.077Z,100194.03
2022-12-31T03:51:11.447Z,100197.09
2022-12-31T03:53:35.734Z,100212.81
2022-12-31T03:55:58.133Z,100193.22
2022-12-31T03:58:20.868Z,100189.34
2022-12-31T04:00:43.241Z,100191.78
2022-12-31T04:03:05.687Z,100184.34
2022-12-31T04:05:28.109Z,100228.38
2022-12-31T04:07:52.190Z,100183.22
2022-12-31T04:10:16.305Z,100206.34
2022-12-31T04:12:39.058Z,100191.47
2022-12-31T04:15:01.426Z,100196.00
2022-12-31T04:17:23.916Z,100220.00
2022-12-31T04:19:46.288Z,100229.56
2022-12-31T04:22:08.639Z,100203.34
2022-12-31T04:24:31.229Z,100214.34
2022-12-31T04:26:53.591Z,100208.84
2022-12-31T04:29:15.949Z,100199.47
2022-12-31T04:31:38.363Z,100202.41
2022-12-31T04:34:00.737Z,100201.59
2022-12-31T04:36:23.131Z,100203.38
2022-12-31T04:38:45.469Z,100234.47
2022-12-31T04:41:17.043Z,100223.63
2022-12-31T04:43:39.384Z,100211.69
2022-12-31T04:46:01.788Z,100225.94
2022-12-31T04:48:24.186Z,100217.34
2022-12-31T04:50:46.970Z,100211.19
2022-12-31T04:53:09.343Z,100207.66
2022-12-31T04:55:31.686Z,100201.50
2022-12-31T04:57:54.045Z,100203.09
2022-12-31T05:00:16.618Z,100205.56
2022-12-31T05:02:39.264Z,100207.97
2022-12-31T05:05:01.761Z,100199.91
2022-12-31T05:07:24.185Z,100217.09
2022-12-31T05:09:46.607Z,100215.97
2022-12-31T05:12:08.974Z,100218.88
2022-12-31T05:14:31.350Z,100211.09
2022-12-31T05:16:53.849Z,100215.97
2022-12-31T05:19:16.284Z,100226.69
2022-12-31T05:21:38.674Z,100239.53
2022-12-31T05:24:01.033Z,100239.19
2022-12-31T05:26:23.391Z,100245.69
2022-12-31T05:28:45.772Z,100244.06
2022-12-31T05:31:08.255Z,100249.59
2022-12-31T05:33:30.643Z,100242.13
2022-12-31T05:35:52.972Z,100244.75
2022-12-31T05:38:15.304Z,100241.66
2022-12-31T05:40:37.656Z,100243.28
2022-12-31T05:43:00.004Z,100235.97
2022-12-31T05:45:28.395Z,100252.22
2022-12-31T05:47:53.002Z,100249.63
2022-12-31T05:50:15.802Z,100239.91
2022-12-31T05:52:38.871Z,100261.31
2022-12-31T05:55:01.277Z,100257.75
2022-12-31T05:57:23.614Z,100247.22
2022-12-31T05:59:45.959Z,100257.91
2022-12-31T06:02:08.339Z,100252.91
2022-12-31T06:04:30.673Z,100245.13
2022-12-31T06:06:53.087Z,100243.66
2022-12-31T06:09:16.887Z,100237.50
2022-12-31T06:11:39.261Z,100260.03
2022-12-31T06:14:01.673Z,100256.97
2022-12-31T06:16:24.344Z,100231.06
2022-12-31T06:18:50.901Z,100271.78
2022-12-31T06:21:13.243Z,100272.41
2022-12-31T06:23:35.598Z,100247.75
2022-12-31T06:26:02.131Z,100246.13
2022-12-31T06:28:24.531Z,100280.69
2022-12-31T06:30:47.375Z,100262.84
2022-12-31T06:33:09.777Z,100254.25
2022-12-31T06:35:32.200Z,100254.25
2022-12-31T06:37:54.582Z,100244.00
2022-12-31T06:40:16.977Z,100253.44
2022-12-31T06:42:39.364Z,100244.84
2022-12-31T06:45:01.827Z,100240.78
2022-12-31T06:47:24.706Z,100253.75
2022-12-31T06:49:47.107Z,100239.16
2022-12-31T06:52:09.447Z,100244.00
2022-12-31T06:54:32.042Z,100251.50
2022-12-31T06:56:54.833Z,100260.25
2022-12-31T06:59:28.859Z,100249.22
2022-12-31T07:02:27.436Z,100259.59
2022-12-31T07:05:27.186Z,100264.97
2022-12-31T07:08:37.554Z,100265.91
2022-12-31T07:11:10.033Z,100253.59
2022-12-31T07:14:02.657Z,100261.66
2022-12-31T07:16:40.220Z,100250.16
2022-12-31T07:19:24.396Z,100237.50
2022-12-31T07:21:46.826Z,100244.94
2022-12-31T07:24:10.534Z,100244.63
2022-12-31T07:26:56.169Z,100249.34
2022-12-31T07:29:24.602Z,100243.81
2022-12-31T07:32:34.638Z,100233.28
2022-12-31T07:35:45.571Z,100238.16
2022-12-31T07:38:16.674Z,100251.81
2022-12-31T07:40:46.335Z,100250.66
2022-12-31T07:43:23.080Z,100252.78
2022-12-31T07:46:13.941Z,100262.38
2022-12-31T07:48:36.639Z,100280.53
2022-12-31T07:50:59.390Z,100270.00
2022-12-31T07:53:25.590Z,100274.03
2022-12-31T07:55:50.379Z,100258.31
2022-12-31T07:58:24.243Z,100247.44
2022-12-31T08:00:46.676Z,100263.34
2022-12-31T08:03:10.248Z,100263.00
2022-12-31T08:05:33.360Z,100252.94
2022-12-31T08:07:57.816Z,100267.72
2022-12-31T08:10:39.338Z,100282.81
2022-12-31T08:12:42.238Z,100264.63
2022-12-31T08:14:46.976Z,100275.19
2022-12-31T08:16:50.611Z,100280.06
2022-12-31T08:18:53.462Z,100292.72
2022-12-31T08:21:15.034Z,100288.50
2022-12-31T08:23:35.421Z,100265.28
2022-12-31T08:26:20.850Z,100276.00
2022-12-31T08:28:51.196Z,100268.69
2022-12-31T08:31:37.666Z,100263.97
2022-12-31T08:34:20.825Z,100256.34
2022-12-31T08:36:29.446Z,100268.66
2022-12-31T08:39:02.243Z,100274.03
2022-12-31T08:41:24.322Z,100243.47
2022-12-31T08:43:38.372Z,100253.06
2022-12-31T08:45:50.087Z,100251.59
2022-12-31T08:48:34.372Z,100257.25
2022-12-31T08:50:37.885Z,100251.91
2022-12-31T08:52:40.855Z,100255.47
2022-12-31T08:54:44.195Z,100247.34
2022-12-31T08:57:16.140Z,100253.34
2022-12-31T08:59:36.854Z,100256.25
2022-12-31T09:02:08.808Z,100295.41
2022-12-31T09:04:20.044Z,100252.69
2022-12-31T09:06:43.922Z,100258.31
2022-12-31T09:09:36.406Z,100248.25
2022-12-31T09:12:11.953Z,100233.44
2022-12-31T09:14:50.138Z,100244.50
2022-12-31T09:17:19.873Z,100243.50
2022-12-31T09:19:22.321Z,100259.91
2022-12-31T09:21:24.967Z,100244.94
2022-12-31T09:23:28.023Z,100244.25
2022-12-31T09:25:31.559Z,100225.88
2022-12-31T09:27:50.189Z,100228.94
2022-12-31T09:30:03.728Z,100225.50
2022-12-31T09:32:17.774Z,100204.69
2022-12-31T09:34:51.119Z,100200.28
2022-12-31T09:37:19.546Z,100199.81
2022-12-31T09:39:45.555Z,100206.03
2022-12-31T09:42:12.013Z,100193.53
2022-12-31T09:44:43.443Z,100169.50
2022-12-31T09:47:06.663Z,100171.19
2022-12-31T09:49:36.821Z,100178.19
2022-12-31T09:51:58.448Z,100168.47
2022-12-31T09:54:19.407Z,100162.66
2022-12-31T09:56:36.580Z,100177.13
2022-12-31T09:58:46.035Z,100181.50
2022-12-31T10:00:57.957Z,100153.25
2022-12-31T10:03:37.817Z,100155.84
2022-12-31T10:05:53.312Z,100157.94
2022-12-31T10:08:01.084Z,100163.94
2022-12-31T10:10:20.738Z,100154.97
2022-12-31T10:12:56.874Z,100172.53
2022-12-31T10:15:40.079Z,100173.81
2022-12-31T10:18:12.855Z,100178.34
2022-12-31T10:20:30.955Z,100186.94
2022-12-31T10:23:36.941Z,100156.25
2022-12-31T10:26:04.953Z,100147.94
2022-12-31T10:28:45.840Z,100168.91
2022-12-31T10:31:13.118Z,100160.09
2022-12-31T10:33:37.013Z,100142.97
2022-12-31T10:35:45.991Z,100137.81
2022-12-31T10:38:12.219Z,100126.53
2022-12-31T10:40:44.119Z,100112.50
2022-12-31T10:43:07.822Z,100130.41
2022-12-31T10:45:49.820Z,100110.03
2022-12-31T10:48:13.098Z,100124.44
2022-12-31T10:51:12.342Z,100140.19
2022-12-31T10:53:58.322Z,100117.84
2022-12-31T10:56:48.631Z,100104.31
2022-12-31T10:59:17.614Z,100118.03
2022-12-31T11:01:28.790Z,100142.09
2022-12-31T11:03:55.941Z,100112.13
2022-12-31T11:06:30.894Z,100107.19
2022-12-31T11:09:10.631Z,100102.28
2022-12-31T11:11:45.756Z,100103.78
2022-12-31T11:14:31.626Z,100100.16
2022-12-31T11:16:44.414Z,100099.59
2022-12-31T11:19:24.570Z,100102.13
2022-12-31T11:21:41.404Z,100072.75
2022-12-31T11:24:04.207Z,100065.47
2022-12-31T11:26:34.125Z,100068.84
2022-12-31T11:28:36.958Z,100092.38
2022-12-31T11:31:14.245Z,100066.53
2022-12-31T11:34:12.700Z,100090.56
2022-12-31T11:37:10.835Z,100081.06
2022-12-31T11:40:01.256Z,100076.25
2022-12-31T11:42:59.083Z,100104.66
2022-12-31T11:45:11.369Z,100052.88
2022-12-31T11:50:42.741Z,100060.59
2022-12-31T11:52:59.965Z,100063.72
2022-12-31T11:55:12.744Z,100042.69
2022-12-31T11:57:36.784Z,100046.94
2022-12-31T11:59:39.046Z,100052.78
2022-12-31T12:02:00.923Z,100020.50
2022-12-31T12:04:03.212Z,100061.84
2022-12-31T12:06:05.969Z,100024.72
2022-12-31T12:08:08.019Z,100029.91
2022-12-31T12:10:36.476Z,100030.44
2022-12-31T12:12:43.409Z,100033.44
2022-12-31T12:14:49.164Z,100016.53
2022-12-31T12:17:04.276Z,100026.44
2022-12-31T12:19:14.672Z,100017.50
2022-12-31T12:21:24.068Z,100034.34
2022-12-31T12:23:28.127Z,100016.66
2022-12-31T12:25:40.350Z,100012.44
2022-12-31T12:27:42.824Z,100023.34
2022-12-31T12:29:45.480Z,100032.59
2022-12-31T12:32:02.416Z,100019.25
2022-12-31T12:34:06.792Z,100035.53
2022-12-31T12:36:15.457Z,100032.13
2022-12-31T12:38:23.286Z,100021.47
2022-12-31T12:40:33.407Z,100031.88
2022-12-31T12:42:50.580Z,100022.34
2022-12-31T12:45:07.385Z,100022.91
2022-12-31T12:47:15.567Z,100025.41
2022-12-31T12:49:24.658Z,100017.19
2022-12-31T12:51:56.544Z,100032.03
2022-12-31T12:54:17.251Z,100026.66
2022-12-31T12:56:42.476Z,100029.94
2022-12-31T12:59:24.951Z,100022.50
2022-12-31T13:01:56.144Z,100015.16
2022-12-31T13:05:05.071Z,100030.81
2022-12-31T13:08:20.335Z,100024.69
2022-12-31T13:11:00.427Z,100038.84
2022-12-31T13:13:32.233Z,100048.50
2022-12-31T13:16:00.633Z,100028.31
2022-12-31T13:18:47.595Z,100044.63
2022-12-31T13:21:32.946Z,100065.78
2022-12-31T13:24:46.344Z,100048.78
2022-12-31T13:27:10.003Z,100071.06
2022-12-31T13:29:22.626Z,100061.16
2022-12-31T13:31:30.926Z,100059.72
2022-12-31T13:33:39.346Z,100065.81
2022-12-31T13:35:56.845Z,100068.13
2022-12-31T13:38:48.875Z,100069.00
2022-12-31T13:40:57.567Z,100075.41
2022-12-31T13:43:08.640Z,100055.56
2022-12-31T13:45:16.811Z,100042.00
2022-12-31T13:47:40.927Z,100059.13
2022-12-31T13:49:57.715Z,100055.25
2022-12-31T13:52:33.660Z,100071.53
2022-12-31T13:54:45.776Z,100059.59
2022-12-31T13:56:48.431Z,100056.78
2022-12-31T13:59:10.399Z,100056.72
2022-12-31T14:01:33.841Z,100057.06
2022-12-31T14:03:54.618Z,100068.13
2022-12-31T14:06:03.555Z,100067.34
2022-12-31T14:08:06.585Z,100057.31
2022-12-31T14:10:16.153Z,100067.19
2022-12-31T14:13:07.635Z,100074.56
2022-12-31T14:15:41.735Z,100063.00
2022-12-31T14:18:06.932Z,100082.41
2022-12-31T14:20:39.734Z,100078.81
2022-12-31T14:22:54.365Z,100086.34
2022-12-31T14:24:57.505Z,100080.34
2022-12-31T14:27:03.726Z,100089.03
2022-12-31T14:29:11.153Z,100083.47
2022-12-31T14:31:37.973Z,100084.59
2022-12-31T14:34:02.419Z,100081.00
2022-12-31T14:36:55.444Z,100077.31
2022-12-31T14:39:17.223Z,100092.41
2022-12-31T14:41:22.519Z,100085.59
2022-12-31T14:43:47.909Z,100094.75
2022-12-31T14:47:04.917Z,100097.09
2022-12-31T14:49:51.988Z,100102.66
2022-12-31T14:51:54.668Z,100115.75
2022-12-31T14:53:57.768Z,100116.13
2022-12-31T14:56:06.290Z,100119.16
2022-12-31T14:58:37.051Z,100120.41
2022-12-31T15:00:40.118Z,100126.78
2022-12-31T15:02:53.115Z,100126.78
2022-12-31T15:05:12.039Z,100137.47
2022-12-31T15:07:26.634Z,100141.06
2022-12-31T15:09:54.465Z,100134.31
2022-12-31T15:12:03.640Z,100133.59
2022-12-31T15:14:28.218Z,100127.25
2022-12-31T15:16:44.425Z,100122.94
2022-12-31T15:19:12.265Z,100122.13
2022-12-31T15:22:09.483Z,100129.66
2022-12-31T15:24:22.855Z,100133.88
2022-12-31T15:26:32.557Z,100135.41
2022-12-31T15:28:39.781Z,100146.53
2022-12-31T15:30:47.388Z,100145.53
2022-12-31T15:32:49.792Z,100141.22
2022-12-31T15:35:27.041Z,100139.06
2022-12-31T15:37:36.918Z,100137.13
2022-12-31T15:39:41.755Z,100148.16
2022-12-31T15:42:35.496Z,100131.13
2022-12-31T15:45:18.925Z,100138.13
2022-12-31T15:47:57.942Z,100134.19
2022-12-31T15:50:04.856Z,100147.28
2022-12-31T15:52:13.613Z,100154.50
2022-12-31T15:54:49.753Z,100129.50
2022-12-31T15:56:52.539Z,100142.31
2022-12-31T15:58:59.365Z,100136.31
2022-12-31T16:01:29.105Z,100150.75
2022-12-31T16:03:31.620Z,100147.44
2022-12-31T16:05:35.317Z,100154.59
2022-12-31T16:07:38.610Z,100140.34
2022-12-31T16:09:41.578Z,100137.91
2022-12-31T16:11:44.662Z,100145.09
2022-12-31T16:13:49.940Z,100141.22
2022-12-31T16:15:59.173Z,100148.06
2022-12-31T16:18:22.383Z,100156.75
2022-12-31T16:20:30.235Z,100160.41
2022-12-31T16:22:39.929Z,100145.28
2022-12-31T16:25:19.590Z,100164.44
2022-12-31T16:27:12.577Z,100133.75
2022-12-31T16:29:16.667Z,100135.38
2022-12-31T16:31:20.123Z,100172.78
2022-12-31T16:33:22.446Z,100158.59
2022-12-31T16:35:38.000Z,100175.28
2022-12-31T16:37:40.731Z,100161.47
2022-12-31T16:40:29.944Z,100171.34
2022-12-31T16:42:32.769Z,100185.00
2022-12-31T16:44:35.361Z,100198.53
2022-12-31T16:46:38.040Z,100191.25
2022-12-31T16:48:41.427Z,100187.88
2022-12-31T16:50:49.897Z,100183.66
2022-12-31T16:53:03.088Z,100195.69
2022-12-31T16:55:18.438Z,100196.94
2022-12-31T16:57:24.487Z,100200.97
2022-12-31T16:59:45.714Z,100194.13
2022-12-31T17:01:48.007Z,100190.28
2022-12-31T17:03:54.117Z,100195.03
2022-12-31T17:06:12.739Z,100195.47
2022-12-31T17:08:23.919Z,100205.28
2022-12-31T17:10:34.242Z,100212.56
2022-12-31T17:15:25.416Z,100203.03
2022-12-31T17:17:28.301Z,100220.91
2022-12-31T17:19:43.303Z,100208.94
2022-12-31T17:21:47.351Z,100218.13
2022-12-31T17:23:54.758Z,100214.94
2022-12-31T17:26:00.710Z,100229.25
2022-12-31T17:28:24.209Z,100234.19
2022-12-31T17:30:32.840Z,100232.38
2022-12-31T17:32:37.913Z,100236.78
2022-12-31T17:34:49.502Z,100237.88
2022-12-31T17:37:07.914Z,100257.75
2022-12-31T17:39:21.141Z,100245.69
2022-12-31T17:41:27.149Z,100235.22
2022-12-31T17:43:34.867Z,100236.75
2022-12-31T17:45:38.123Z,100243.13
2022-12-31T17:47:45.167Z,100250.22
2022-12-31T17:49:48.136Z,100240.97
2022-12-31T17:51:50.714Z,100245.47
2022-12-31T17:53:53.282Z,100223.97
2022-12-31T17:55:57.064Z,100227.97
2022-12-31T17:57:59.866Z,100233.97
2022-12-31T18:00:16.939Z,100238.28
2022-12-31T18:02:20.173Z,100239.00
2022-12-31T18:04:22.587Z,100235.41
2022-12-31T18:06:26.766Z,100244.47
2022-12-31T18:08:29.464Z,100230.91
2022-12-31T18:10:36.548Z,100245.63
2022-12-31T18:12:38.886Z,100229.66
2022-12-31T18:14:42.067Z,100235.94
2022-12-31T18:16:44.541Z,100233.53
2022-12-31T18:18:47.462Z,100237.94
2022-12-31T18:20:55.325Z,100244.22
2022-12-31T18:22:58.211Z,100246.47
2022-12-31T18:25:00.931Z,100252.84
2022-12-31T18:27:03.682Z,100234.53
2022-12-31T18:29:15.657Z,100240.38
2022-12-31T18:31:27.280Z,100261.00
2022-12-31T18:33:29.518Z,100239.56
2022-12-31T18:37:53.770Z,100234.28
2022-12-31T18:39:56.902Z,100233.81
2022-12-31T18:41:59.504Z,100242.06
2022-12-31T18:44:20.496Z,100212.28
2022-12-31T18:46:41.140Z,100231.84
2022-12-31T18:49:04.248Z,100231.03
2022-12-31T18:51:32.005Z,100231.84
2022-12-31T18:53:54.831Z,100215.16
2022-12-31T18:56:19.529Z,100210.41
2022-12-31T18:58:41.988Z,100220.81
2022-12-31T19:01:04.662Z,100214.44
2022-12-31T19:03:28.375Z,100203.06
2022-12-31T19:05:51.420Z,100191.09
2022-12-31T19:08:13.861Z,100187.59
2022-12-31T19:10:36.252Z,100194.03
2022-12-31T19:12:58.668Z,100217.03
2022-12-31T19:15:35.761Z,100207.59
2022-12-31T19:17:58.169Z,100203.66
2022-12-31T19:20:20.606Z,100191.44
2022-12-31T19:22:43.060Z,100197.09
2022-12-31T19:25:22.318Z,100199.06
2022-12-31T19:27:44.801Z,100196.28
2022-12-31T19:30:13.848Z,100178.75
2022-12-31T19:32:36.210Z,100215.41
2022-12-31T19:34:58.626Z,100186.75
2022-12-31T19:37:21.000Z,100195.63
2022-12-31T19:39:43.380Z,100225.34
2022-12-31T19:42:05.747Z,100209.56
2022-12-31T19:44:28.108Z,100202.91
2022-12-31T19:46:50.531Z,100210.78
2022-12-31T19:49:16.080Z,100224.44
2022-12-31T19:51:38.564Z,100202.53
2022-12-31T19:54:00.988Z,100227.66
2022-12-31T19:56:23.411Z,100209.00
2022-12-31T19:58:45.845Z,100224.06
2022-12-31T20:01:09.449Z,100235.59
2022-12-31T20:03:32.943Z,100216.09
2022-12-31T20:06:21.737Z,100220.84
2022-12-31T20:08:44.160Z,100261.06
2022-12-31T20:11:20.230Z,100199.84
2022-12-31T20:13:42.817Z,100234.41
2022-12-31T20:16:17.589Z,100223.72
2022-12-31T20:18:41.057Z,100223.00
2022-12-31T20:21:03.448Z,100236.03
2022-12-31T20:23:25.828Z,100207.38
2022-12-31T20:25:58.209Z,100237.66
2022-12-31T20:28:20.610Z,100210.53
2022-12-31T20:30:43.145Z,100213.66
2022-12-31T20:33:05.581Z,100207.75
2022-12-31T20:35:27.950Z,100207.22
2022-12-31T20:37:50.306Z,100221.16
2022-12-31T20:40:13.021Z,100200.75
2022-12-31T20:42:39.923Z,100207.88
2022-12-31T20:45:02.287Z,100192.03
2022-12-31T20:47:24.723Z,100196.75
2022-12-31T20:50:10.383Z,100217.81
2022-12-31T20:52:29.417Z,100223.38
2022-12-31T20:54:51.783Z,100223.13
2022-12-31T20:57:14.173Z,100200.47
2022-12-31T20:59:36.577Z,100202.81
2022-12-31T21:04:41.907Z,100235.84
2022-12-31T21:07:04.475Z,100203.44
2022-12-31T21:09:26.875Z,100220.22
2022-12-31T21:12:07.642Z,100231.66
2022-12-31T21:14:30.013Z,100217.47
2022-12-31T21:16:52.495Z,100220.44
2022-12-31T21:19:14.908Z,100248.00
2022-12-31T21:21:37.546Z,100226.75
2022-12-31T21:23:59.999Z,100250.81
2022-12-31T21:26:22.334Z,100218.94
2022-12-31T21:28:44.782Z,100245.25
2022-12-31T21:31:08.001Z,100233.00
2022-12-31T21:33:30.528Z,100242.16
2022-12-31T21:35:54.030Z,100215.19
2022-12-31T21:38:17.162Z,100269.38
2022-12-31T21:40:39.499Z,100260.72
2022-12-31T21:43:01.950Z,100234.47
2022-12-31T21:45:24.467Z,100260.00
2022-12-31T21:48:05.643Z,100263.66
2022-12-31T21:50:28.036Z,100237.75
2022-12-31T21:52:50.434Z,100259.78
2022-12-31T21:55:31.769Z,100250.16
2022-12-31T22:00:55.019Z,100274.63
2022-12-31T22:03:29.800Z,100265.84
2022-12-31T22:06:03.162Z,100256.00
2022-12-31T22:08:25.788Z,100298.66
2022-12-31T22:10:52.467Z,100256.53
2022-12-31T22:13:15.492Z,100273.63
2022-12-31T22:15:37.949Z,100277.00
2022-12-31T22:18:00.399Z,100288.53
2022-12-31T22:20:28.566Z,100277.72
2022-12-31T22:22:51.206Z,100263.78
2022-12-31T22:25:13.628Z,100293.28
2022-12-31T22:27:36.069Z,100271.81
2022-12-31T22:29:58.430Z,100323.97
2022-12-31T22:32:20.803Z,100268.28
2022-12-31T22:34:43.162Z,100264.59
2022-12-31T22:37:27.493Z,100244.19
2022-12-31T22:39:47.969Z,100271.00
2022-12-31T22:42:10.336Z,100295.78
2022-12-31T22:44:32.760Z,100282.94
2022-12-31T22:46:56.326Z,100266.56
2022-12-31T22:49:20.186Z,100302.41
2022-12-31T22:51:55.188Z,100270.47
2022-12-31T22:54:19.831Z,100256.47
2022-12-31T22:56:42.423Z,100231.75
2022-12-31T22:59:04.859Z,100279.06
2022-12-31T23:01:27.268Z,100296.16
2022-12-31T23:03:51.964Z,100261.81
2022-12-31T23:06:14.659Z,100262.13
2022-12-31T23:08:37.049Z,100269.59
2022-12-31T23:10:59.814Z,100261.09
2022-12-31T23:13:45.895Z,100255.81
2022-12-31T23:16:30.910Z,100279.56
2022-12-31T23:19:11.921Z,100265.81
2022-12-31T23:21:52.906Z,100250.88
2022-12-31T23:24:21.416Z,100252.13
2022-12-31T23:26:46.940Z,100253.06
2022-12-31T23:29:09.280Z,100253.97
2022-12-31T23:31:31.746Z,100249.03
2022-12-31T23:33:57.289Z,100244.03
2022-12-31T23:36:19.627Z,100251.78
2022-12-31T23:38:42.043Z,100261.47
2022-12-31T23:41:15.212Z,100269.88
2022-12-31T23:43:37.568Z,100261.00
2022-12-31T23:45:59.913Z,100270.78
2022-12-31T23:48:22.319Z,100251.94
2022-12-31T23:50:50.841Z,100251.84
2022-12-31T23:53:15.262Z,100244.56
2022-12-31T23:55:37.617Z,100277.03
2022-12-31T23:57:59.949Z,100245.53
